Time;durP1;ratioP1;P1;durP2;ratioP2;P2;SDS_P1;SDS_P2;PMS_P1;PMS_P2;Temp;Humidity;BMP_temperature;BMP_pressure;BME280_temperature;BME280_humidity;BME280_pressure;Samples;Min_cycle;Max_cycle;Signal;HPM_P1;HPM_P2
2021/11/11 00:02:15;;;;;;;;;;;;;;;;;;;;;
2021/11/11 00:07:25;;;;;;;31.90;19.65;;;;;;;8.41;100.00;102335.72;2609859;31;20142;-72
2021/11/11 00:10:19;;;;;;;41.47;20.70;;;;;;;8.37;100.00;102334.13;2609786;36;20145;-72
2021/11/11 00:12:49;;;;;;;38.67;19.70;;;;;;;8.43;100.00;102335.63;2610589;31;20052;-72
2021/11/11 00:15:18;;;;;;;38.60;20.33;;;;;;;8.37;100.00;102334.13;2611111;36;20057;-71
2021/11/11 00:18:17;;;;;;;39.00;19.75;;;;;;;8.35;100.00;102340.56;2610689;31;20704;-72
2021/11/11 00:20:46;;;;;;;36.88;19.23;;;;;;;8.33;100.00;102343.34;2610723;36;20052;-71
2021/11/11 00:23:14;;;;;;;40.58;20.90;;;;;;;8.35;100.00;102343.25;2611085;31;20065;-72
2021/11/11 00:28:26;;;;;;;36.40;20.00;;;;;;;8.37;100.00;102347.56;2609933;36;20548;-71
2021/11/11 00:30:54;;;;;;;36.83;20.20;;;;;;;8.39;100.00;102353.72;2606103;36;20038;-70
2021/11/11 00:33:22;;;;;;;33.63;18.73;;;;;;;8.39;100.00;102353.72;2609918;36;20055;-71
2021/11/11 00:35:51;;;;;;;40.13;19.00;;;;;;;8.38;100.00;102351.13;2609723;36;20126;-71
2021/11/11 00:38:19;;;;;;;35.00;19.17;;;;;;;8.36;100.00;102353.00;2610682;31;20072;-72
2021/11/11 00:40:50;;;;;;;36.13;20.48;;;;;;;8.35;100.00;102345.94;2610259;36;20060;-71
2021/11/11 00:43:25;;;;;;;37.17;19.25;;;;;;;8.40;100.00;102347.38;2611407;36;20149;-72
2021/11/11 00:45:54;;;;;;;39.05;20.60;;;;;;;8.39;100.00;102348.34;2611452;31;20584;-71
2021/11/11 00:48:24;;;;;;;33.20;18.85;;;;;;;8.37;100.00;102346.69;2611027;36;20165;-72
2021/11/11 00:50:53;;;;;;;30.50;18.60;;;;;;;8.45;100.00;102344.50;2611896;36;20156;-72
2021/11/11 00:53:21;;;;;;;37.83;19.00;;;;;;;8.44;100.00;102344.56;2611787;36;20058;-71
2021/11/11 00:55:52;;;;;;;37.42;21.10;;;;;;;8.39;100.00;102342.09;2611298;36;20650;-71
2021/11/11 00:58:20;;;;;;;35.03;20.75;;;;;;;8.38;100.00;102340.41;2611259;36;20042;-70
2021/11/11 01:00:49;;;;;;;36.38;20.92;;;;;;;8.33;100.00;102347.81;2611567;36;20038;-72
2021/11/11 01:03:25;;;;;;;32.78;18.90;;;;;;;8.33;100.00;102342.44;2611331;36;20161;-72
2021/11/11 01:05:54;;;;;;;37.83;20.25;;;;;;;8.30;100.00;102338.13;2611125;36;20042;-72
2021/11/11 01:11:07;;;;;;;41.95;20.60;;;;;;;8.32;100.00;102338.03;2611209;36;20031;-71
2021/11/11 01:13:36;;;;;;;38.85;21.00;;;;;;;8.32;100.00;102338.03;2611608;36;20038;-71
2021/11/11 01:16:09;;;;;;;31.40;18.42;;;;;;;8.31;100.00;102350.59;2611546;36;20608;-72
2021/11/11 01:18:37;;;;;;;38.60;19.98;;;;;;;8.33;100.00;102347.81;2610897;36;20636;-71
2021/11/11 01:21:12;;;;;;;37.58;19.05;;;;;;;8.29;100.00;102340.88;2611654;36;20039;-71
2021/11/11 01:23:41;;;;;;;39.20;19.63;;;;;;;8.31;100.00;102345.22;2611671;31;20551;-71
2021/11/11 01:26:19;;;;;;;41.25;19.70;;;;;;;8.27;100.00;102346.34;2611561;36;20173;-72
2021/11/11 01:28:55;;;;;;;39.60;20.42;;;;;;;8.23;100.00;102358.22;2610703;36;20110;-72
2021/11/11 01:31:29;;;;;;;38.53;20.10;;;;;;;8.41;100.00;102348.28;2610461;36;20035;-71
2021/11/11 01:33:57;;;;;;;29.88;18.10;;;;;;;8.38;100.00;102340.41;2610753;36;20035;-71
2021/11/11 01:36:26;;;;;;;36.80;19.90;;;;;;;8.30;100.00;102348.00;2611205;36;20137;-71
2021/11/11 01:39:27;;;;;;;33.97;19.83;;;;;;;8.25;100.00;102334.84;2611096;36;20428;-72
2021/11/11 01:41:58;;;;;;;33.63;19.60;;;;;;;8.25;100.00;102340.19;2606521;36;20173;-71
2021/11/11 01:47:31;;;;;;;34.70;18.65;;;;;;;8.22;100.00;102327.81;2610351;36;20052;-71
2021/11/11 01:49:59;;;;;;;36.58;19.80;;;;;;;8.23;100.00;102320.66;2609948;36;20161;-70
2021/11/11 01:52:44;;;;;;;32.65;18.45;;;;;;;8.23;100.00;102320.66;2611089;36;20561;-72
2021/11/11 01:55:40;;;;;;;36.33;18.80;;;;;;;8.28;100.00;102318.56;2609531;36;20035;-71
2021/11/11 01:58:19;;;;;;;33.03;18.45;;;;;;;8.34;100.00;102312.00;2609850;31;20059;-71
2021/11/11 02:00:56;;;;;;;35.08;19.75;;;;;;;8.33;100.00;102310.25;2610482;36;20438;-70
2021/11/11 02:03:24;;;;;;;40.92;19.98;;;;;;;8.22;100.00;102302.81;2611529;36;20038;-71
2021/11/11 02:05:53;;;;;;;34.10;18.57;;;;;;;8.18;100.00;102301.25;2612472;36;20023;-71
2021/11/11 02:08:22;;;;;;;38.90;19.40;;;;;;;8.19;100.00;102309.22;2612328;36;20039;-70
2021/11/11 02:10:50;;;;;;;38.60;19.60;;;;;;;8.18;100.00;102301.25;2609733;36;20039;-70
2021/11/11 02:16:05;;;;;;;35.70;19.70;;;;;;;8.20;100.00;102304.69;2611291;36;20310;-70
2021/11/11 02:18:34;;;;;;;38.20;19.33;;;;;;;8.18;100.00;102306.63;2610297;36;20167;-70
2021/11/11 02:21:05;;;;;;;32.53;18.08;;;;;;;8.19;100.00;102303.00;2610603;36;20185;-70
2021/11/11 02:23:33;;;;;;;33.47;20.40;;;;;;;8.17;100.00;102304.88;2610882;36;20034;-70
2021/11/11 02:26:03;;;;;;;38.47;20.52;;;;;;;8.15;100.00;102302.28;2611407;36;20125;-70
2021/11/11 02:28:31;;;;;;;36.63;19.60;;;;;;;8.14;100.00;102299.69;2610614;31;20030;-71
2021/11/11 02:31:12;;;;;;;33.15;19.83;;;;;;;8.21;100.00;102303.75;2610344;31;20780;-71
2021/11/11 02:36:21;;;;;;;35.42;19.73;;;;;;;8.21;100.00;102298.41;2610355;36;20051;-71
2021/11/11 02:39:19;;;;;;;39.67;19.67;;;;;;;8.17;100.00;102291.47;2611427;36;20539;-71
2021/11/11 02:41:48;;;;;;;39.33;20.33;;;;;;;8.12;100.00;102296.22;2610706;36;20215;-71
2021/11/11 02:44:16;;;;;;;42.77;20.20;;;;;;;8.09;100.00;102299.09;2609625;36;20138;-71
2021/11/11 02:46:52;;;;;;;37.10;19.55;;;;;;;8.10;100.00;102298.13;2610998;36;20034;-71
2021/11/11 02:49:21;;;;;;;40.58;20.17;;;;;;;8.16;100.00;102295.13;2610559;36;20030;-71
2021/11/11 02:51:54;;;;;;;37.00;18.88;;;;;;;8.21;100.00;102290.34;2610215;36;20035;-71
2021/11/11 02:54:22;;;;;;;42.22;20.98;;;;;;;8.24;100.00;102296.44;2610961;31;20531;-72
2021/11/11 02:56:50;;;;;;;39.78;20.10;;;;;;;8.13;100.00;102293.47;2612077;36;20703;-72
2021/11/11 02:59:18;;;;;;;38.88;19.55;;;;;;;8.12;100.00;102293.56;2610801;36;20053;-70
2021/11/11 03:05:03;;;;;;;40.63;20.77;;;;;;;8.11;100.00;102289.13;2609158;36;20037;-71
2021/11/11 03:07:34;;;;;;;42.88;21.20;;;;;;;8.09;100.00;102288.38;2610715;36;20164;-72
2021/11/11 03:10:02;;;;;;;40.63;21.08;;;;;;;8.05;100.00;102288.53;2610050;36;20165;-71
2021/11/11 03:12:30;;;;;;;42.63;21.25;;;;;;;8.06;100.00;102284.03;2611147;36;20030;-71
2021/11/11 03:14:59;;;;;;;40.83;22.15;;;;;;;8.06;100.00;102282.19;2610473;31;20241;-71
2021/11/11 03:17:35;;;;;;;45.95;20.40;;;;;;;8.05;100.00;102290.34;2611089;36;20451;-71
2021/11/11 03:20:03;;;;;;;46.10;21.75;;;;;;;8.05;100.00;102282.28;2610277;36;20085;-71
2021/11/11 03:25:34;;;;;;;39.95;21.15;;;;;;;8.09;100.00;102291.03;2609289;36;20038;-71
2021/11/11 03:30:43;;;;;;;42.17;21.58;;;;;;;8.07;100.00;102289.31;2627343;36;20593;-71
2021/11/11 03:33:35;;;;;;;37.60;20.48;;;;;;;8.06;100.00;102290.25;2609611;31;20046;-71
2021/11/11 03:39:17;;;;;;;40.15;20.50;;;;;;;8.03;100.00;102292.25;2627978;36;20033;-71
2021/11/11 03:41:53;;;;;;;38.50;20.98;;;;;;;8.02;100.00;102291.38;2609846;36;20053;-72
2021/11/11 03:44:31;;;;;;;39.70;21.98;;;;;;;8.03;100.00;102287.72;2610273;36;20031;-71
2021/11/11 03:47:02;;;;;;;36.85;19.48;;;;;;;8.00;100.00;102285.22;2610357;36;20052;-70
2021/11/11 03:49:32;;;;;;;40.65;21.63;;;;;;;7.99;100.00;102291.53;2609301;36;20068;-71
2021/11/11 03:52:01;;;;;;;36.25;21.05;;;;;;;7.99;100.00;102285.31;2610250;36;20169;-70
2021/11/11 03:54:32;;;;;;;38.38;20.90;;;;;;;7.99;100.00;102296.88;2610827;31;20054;-71
2021/11/11 03:57:00;;;;;;;38.63;20.02;;;;;;;7.98;100.00;102287.13;2610633;36;20049;-71
2021/11/11 03:59:30;;;;;;;40.03;21.00;;;;;;;7.95;100.00;102306.06;2609621;36;20125;-71
2021/11/11 04:04:39;;;;;;;43.15;20.90;;;;;;;8.03;100.00;102316.38;2627749;36;20031;-72
2021/11/11 04:07:07;;;;;;;44.40;23.98;;;;;;;8.00;100.00;102313.88;2609777;36;20254;-71
2021/11/11 04:09:38;;;;;;;46.95;23.17;;;;;;;7.96;100.00;102314.97;2610662;36;20150;-71
2021/11/11 04:12:18;;;;;;;48.05;22.42;;;;;;;8.01;100.00;102321.81;2609550;36;20677;-71
2021/11/11 04:14:47;;;;;;;47.80;22.90;;;;;;;7.99;100.00;102328.22;2609710;36;20598;-71
2021/11/11 04:17:15;;;;;;;42.05;20.88;;;;;;;8.00;100.00;102327.28;2610029;36;20358;-71
2021/11/11 04:22:12;;;;;;;47.83;23.30;;;;;;;7.94;100.00;102317.75;2610776;36;20856;-70
2021/11/11 04:24:46;;;;;;;46.70;23.25;;;;;;;7.96;100.00;102312.28;2609807;36;20891;-71
2021/11/11 04:27:19;;;;;;;43.95;24.70;;;;;;;7.96;100.00;102313.16;2610397;36;21090;-71
2021/11/11 04:29:56;;;;;;;46.13;24.33;;;;;;;7.96;100.00;102312.28;2609849;36;20034;-72
2021/11/11 04:32:24;;;;;;;45.72;23.98;;;;;;;7.98;100.00;102311.28;2608906;36;20069;-71
2021/11/11 04:34:57;;;;;;;47.40;25.30;;;;;;;7.99;100.00;102307.63;2609436;36;20061;-71
2021/11/11 04:37:32;;;;;;;44.42;23.65;;;;;;;7.97;100.00;102306.84;2610321;36;20042;-71
2021/11/11 05:04:52;;;;;;;48.40;24.17;;;;;;;7.97;100.00;102309.53;2607722;31;20030;-71
2021/11/11 05:10:10;;;;;;;44.90;22.83;;;;;;;8.07;100.00;102318.81;2608826;36;20037;-72
2021/11/11 05:15:29;;;;;;;41.05;21.48;;;;;;;7.92;100.00;102322.34;2610287;36;20030;-70
2021/11/11 05:17:57;;;;;;;45.65;22.40;;;;;;;7.93;100.00;102323.19;2609537;36;20157;-71
2021/11/11 05:20:26;;;;;;;39.83;21.80;;;;;;;7.90;100.00;102324.22;2608738;36;20145;-71
2021/11/11 05:22:54;;;;;;;48.08;22.38;;;;;;;7.86;100.00;102328.00;2609276;36;20030;-70
2021/11/11 05:25:22;;;;;;;43.78;22.70;;;;;;;7.90;100.00;102334.94;2610045;36;20145;-70
2021/11/11 05:27:54;;;;;;;37.37;20.93;;;;;;;7.88;100.00;102328.81;2610489;36;20053;-71
2021/11/11 05:30:23;;;;;;;44.78;21.58;;;;;;;7.85;100.00;102321.78;2610424;36;20031;-71
2021/11/11 05:32:52;;;;;;;40.05;21.60;;;;;;;7.80;100.00;102320.28;2610973;31;20523;-70
2021/11/11 05:35:20;;;;;;;48.88;23.13;;;;;;;7.76;100.00;102302.63;2611040;36;20795;-71
2021/11/11 05:37:49;;;;;;;48.05;22.08;;;;;;;7.83;100.00;102304.94;2611133;36;20138;-71
2021/11/11 05:40:18;;;;;;;44.88;23.35;;;;;;;7.79;100.00;102315.88;2609925;36;20069;-70
2021/11/11 05:50:58;;;;;;;45.60;24.17;;;;;;;7.77;100.00;102320.47;2610227;36;20368;-72
2021/11/11 05:54:06;;;;;;;47.47;24.70;;;;;;;7.77;100.00;102323.13;2610623;36;20038;-70
2021/11/11 05:56:34;;;;;;;48.20;26.17;;;;;;;7.87;100.00;102327.91;2610625;36;20161;-71
2021/11/11 06:01:53;;;;;;;46.55;25.73;;;;;;;7.88;100.00;102332.34;2610258;36;20034;-72
2021/11/11 06:04:21;;;;;;;45.58;26.77;;;;;;;7.85;100.00;102332.50;2611247;31;20549;-71
2021/11/11 06:06:49;;;;;;;45.13;26.50;;;;;;;7.83;100.00;102331.72;2610315;36;20034;-71
2021/11/11 06:09:18;;;;;;;54.10;30.15;;;;;;;7.88;100.00;102331.47;2610742;31;20666;-71
2021/11/11 06:14:27;;;;;;;53.22;29.35;;;;;;;7.95;100.00;102335.56;2610567;36;20521;-71
2021/11/11 06:20:14;;;;;;;49.35;28.27;;;;;;;7.91;100.00;102344.72;2608316;36;20030;-72
2021/11/11 06:22:45;;;;;;;54.92;31.05;;;;;;;7.85;100.00;102343.22;2609285;36;20779;-71
2021/11/11 06:25:14;;;;;;;53.97;31.17;;;;;;;7.87;100.00;102338.63;2609851;36;20041;-71
2021/11/11 06:27:45;;;;;;;56.30;31.88;;;;;;;7.84;100.00;102338.81;2609869;36;20035;-71
2021/11/11 06:32:57;;;;;;;49.15;30.60;;;;;;;7.85;100.00;102347.72;2609251;36;20031;-71
2021/11/11 06:35:32;;;;;;;59.67;33.33;;;;;;;7.87;100.00;102348.50;2610190;36;20052;-70
2021/11/11 06:38:02;;;;;;;55.03;34.65;;;;;;;7.85;100.00;102343.22;2609489;36;20062;-71
2021/11/11 06:40:35;;;;;;;60.50;33.13;;;;;;;7.86;100.00;102344.06;2609276;36;20118;-70
2021/11/11 06:43:05;;;;;;;51.08;32.75;;;;;;;7.90;100.00;102353.69;2609878;36;20030;-72
2021/11/11 06:45:38;;;;;;;57.28;33.63;;;;;;;7.87;100.00;102356.53;2609621;36;20038;-71
2021/11/11 06:48:17;;;;;;;58.58;33.58;;;;;;;7.89;100.00;102350.16;2608762;36;20035;-72
2021/11/11 06:50:47;;;;;;;55.47;34.58;;;;;;;7.85;100.00;102345.06;2609719;36;20121;-71
2021/11/11 06:53:18;;;;;;;60.42;36.08;;;;;;;7.80;100.00;102347.09;2611049;36;20572;-71
2021/11/11 06:55:50;;;;;;;57.60;37.35;;;;;;;7.79;100.00;102353.41;2610140;36;20533;-72
2021/11/11 06:58:34;;;;;;;58.25;35.03;;;;;;;7.84;100.00;102357.56;2609693;36;20034;-71
2021/11/11 07:01:04;;;;;;;63.53;37.70;;;;;;;7.81;100.00;102362.25;2611450;31;20122;-70
2021/11/11 07:03:35;;;;;;;62.58;36.88;;;;;;;7.86;100.00;102365.53;2610879;36;20546;-71
2021/11/11 07:09:07;;;;;;;59.90;37.40;;;;;;;7.88;100.00;102369.88;2628544;31;20042;-71
2021/11/11 07:11:36;;;;;;;65.70;37.43;;;;;;;7.88;100.00;102371.69;2610993;31;20041;-70
2021/11/11 07:16:53;;;;;;;66.93;37.88;;;;;;;7.93;100.00;102366.94;2608212;54;21197;-71
2021/11/11 07:19:26;;;;;;;58.95;37.10;;;;;;;7.97;100.00;102373.88;2610978;31;20037;-71
2021/11/11 07:21:54;;;;;;;63.63;38.28;;;;;;;8.03;100.00;102384.25;2612034;31;20613;-71
2021/11/11 07:24:35;;;;;;;57.67;38.73;;;;;;;8.06;100.00;102381.41;2611263;36;20130;-71
2021/11/11 07:27:10;;;;;;;61.42;39.80;;;;;;;8.07;100.00;102390.34;2611204;36;20122;-72
2021/11/11 07:29:47;;;;;;;60.90;38.03;;;;;;;8.09;100.00;102382.22;2611034;36;20499;-71
2021/11/11 07:32:37;;;;;;;56.20;38.85;;;;;;;8.09;100.00;102382.22;2610768;31;20122;-71
2021/11/11 07:41:47;;;;;;;65.28;40.13;;;;;;;8.20;100.00;102379.81;2606811;31;20129;-71
2021/11/11 07:44:16;;;;;;;60.15;40.25;;;;;;;8.23;100.00;102390.41;2611793;36;20060;-73
2021/11/11 07:52:11;;;;;;;57.05;37.88;;;;;;;8.31;100.00;102382.78;2610956;36;20031;-72
2021/11/11 07:57:56;;;;;;;58.17;38.60;;;;;;;8.31;100.00;102392.66;2607268;36;20030;-72
2021/11/11 08:00:24;;;;;;;63.97;38.60;;;;;;;8.40;100.00;102398.34;2609613;36;20046;-72
2021/11/11 08:02:54;;;;;;;57.40;36.28;;;;;;;8.49;100.00;102404.22;2609999;36;20130;-72
2021/11/11 08:05:26;;;;;;;55.88;35.58;;;;;;;8.48;100.00;102405.16;2611350;36;20035;-73
2021/11/11 08:07:54;;;;;;;57.35;36.15;;;;;;;8.45;100.00;102405.34;2611369;36;20041;-72
2021/11/11 08:11:16;;;;;;;60.47;34.77;;;;;;;8.48;100.00;102399.78;2609044;31;20042;-72
2021/11/11 08:16:57;;;;;;;54.15;31.58;;;;;;;8.48;100.00;102400.69;2609002;36;20043;-73
2021/11/11 08:19:25;;;;;;;57.63;30.58;;;;;;;8.45;100.00;102402.66;2608586;47;20054;-72
2021/11/11 08:22:06;;;;;;;59.35;32.63;;;;;;;8.40;100.00;102397.50;2609453;36;20034;-72
2021/11/11 08:24:58;;;;;;;51.47;31.02;;;;;;;8.47;100.00;102395.41;2610138;36;20035;-72
2021/11/11 08:36:19;;;;;;;53.80;27.75;;;;;;;8.76;100.00;102383.03;2610727;36;20077;-70
2021/11/11 08:42:17;;;;;;;48.70;27.13;;;;;;;9.00;100.00;102386.13;2610545;54;21191;-69
2021/11/11 08:44:53;;;;;;;45.90;26.40;;;;;;;8.99;100.00;102384.38;2610339;36;20488;-71
2021/11/11 08:51:08;;;;;;;50.88;27.25;;;;;;;8.93;100.00;102380.22;2628873;31;20018;-69
2021/11/11 09:05:59;;;;;;;50.27;26.97;;;;;;;8.89;100.00;102389.44;2609781;39;20537;-70
2021/11/11 09:20:57;;;;;;;53.40;27.00;;;;;;;9.15;100.00;102384.38;2629140;36;20023;-71
2021/11/11 10:02:12;;;;;;;58.35;28.25;;;;;;;9.37;100.00;102405.47;2611104;36;20161;-71
2021/11/11 10:30:57;;;;;;;49.22;26.70;;;;;;;9.35;100.00;102417.25;2627391;36;20025;-71
2021/11/11 10:46:12;;;;;;;57.47;29.55;;;;;;;9.27;100.00;102412.34;2608968;36;20035;-70
2021/11/11 11:35:56;;;;;;;55.60;30.30;;;;;;;9.96;100.00;102399.28;2608513;31;20461;-71
2021/11/11 11:41:48;;;;;;;59.78;31.88;;;;;;;9.95;100.00;102392.16;2607988;54;20023;-71
2021/11/11 11:44:31;;;;;;;61.53;33.40;;;;;;;9.86;100.00;102390.06;2628434;36;20161;-71
2021/11/11 11:47:17;;;;;;;55.08;31.02;;;;;;;9.87;100.00;102386.41;2610064;36;20702;-70
2021/11/11 11:49:48;;;;;;;57.00;31.40;;;;;;;9.85;100.00;102388.31;2611067;36;20054;-71
2021/11/11 11:52:17;;;;;;;56.95;32.03;;;;;;;9.90;100.00;102387.06;2610997;31;20448;-70
2021/11/11 11:54:50;;;;;;;52.60;31.83;;;;;;;9.96;100.00;102377.78;2611306;36;20435;-71
2021/11/11 11:57:24;;;;;;;59.88;30.38;;;;;;;10.11;100.00;102379.50;2611215;36;20153;-70
2021/11/11 11:59:57;;;;;;;57.33;30.85;;;;;;;10.16;100.00;102376.53;2611457;36;20483;-70
2021/11/11 12:02:37;;;;;;;57.55;29.38;;;;;;;10.29;100.00;102382.00;2628608;36;20031;-70
2021/11/11 12:05:19;;;;;;;59.47;32.53;;;;;;;10.30;100.00;102371.13;2610842;36;20038;-70
2021/11/11 12:08:13;;;;;;;54.63;29.27;;;;;;;10.29;100.00;102371.22;2611192;31;20076;-72
2021/11/11 12:10:50;;;;;;;54.65;29.00;;;;;;;10.33;100.00;102372.78;2610761;36;20049;-70
2021/11/11 12:13:43;;;;;;;56.47;31.30;;;;;;;10.35;100.00;102370.91;2610290;31;20050;-72
2021/11/11 12:42:32;;;;;;;54.40;29.45;;;;;;;10.65;100.00;102353.72;2610854;36;20568;-72
2021/11/11 12:47:48;;;;;;;48.20;28.52;;;;;;;10.95;100.00;102352.66;2612077;36;20034;-72
2021/11/11 12:53:32;;;;;;;48.95;29.02;;;;;;;11.03;100.00;102344.94;2613230;47;20053;-71
2021/11/11 12:56:33;;;;;;;53.67;31.35;;;;;;;10.92;100.00;102350.19;2612364;36;20126;-71
2021/11/11 12:59:16;;;;;;;58.83;30.02;;;;;;;11.03;100.00;102344.94;2610851;31;20049;-72
2021/11/11 13:01:54;;;;;;;50.15;28.60;;;;;;;10.98;100.00;102347.97;2612450;31;20221;-71
2021/11/11 13:04:25;;;;;;;49.92;29.90;;;;;;;11.06;100.00;102339.34;2612448;36;20038;-73
2021/11/11 13:06:58;;;;;;;55.42;30.65;;;;;;;10.79;100.00;102352.81;2612314;36;20053;-71
2021/11/11 13:09:40;;;;;;;54.97;29.38;;;;;;;10.77;100.00;102352.91;2611704;54;20054;-71
2021/11/11 13:12:24;;;;;;;55.90;30.08;;;;;;;10.68;100.00;102345.44;2612310;36;20165;-72
2021/11/11 13:17:44;;;;;;;54.05;31.98;;;;;;;10.75;100.00;102341.38;2611738;36;20496;-71
2021/11/11 13:20:35;;;;;;;53.20;28.95;;;;;;;10.86;100.00;102341.56;2611923;36;20157;-72
2021/11/11 17:29:36;;;;;;;52.42;33.17;;;;;;;9.89;100.00;102346.84;2615236;36;20030;-72
2021/11/11 17:32:07;;;;;;;56.20;33.58;;;;;;;9.82;100.00;102341.84;2615173;36;20042;-70
2021/11/11 17:34:53;;;;;;;56.70;34.55;;;;;;;9.81;100.00;102348.16;2616208;31;20041;-72
2021/11/11 17:37:32;;;;;;;63.15;34.58;;;;;;;9.77;100.00;102354.69;2615149;36;20072;-71
2021/11/11 17:53:28;;;;;;;61.45;35.03;;;;;;;9.77;100.00;102354.69;2613362;36;20030;-71
2021/11/11 17:56:04;;;;;;;66.93;35.90;;;;;;;9.78;100.00;102347.50;2615513;36;20045;-72
2021/11/11 17:59:27;;;;;;;58.97;35.25;;;;;;;9.78;100.00;102356.44;2614385;36;20608;-70
2021/11/11 18:16:39;;;;;;;63.80;36.58;;;;;;;9.70;100.00;102347.97;2615609;36;20067;-70
2021/11/11 18:21:59;;;;;;;66.43;37.33;;;;;;;9.66;100.00;102341.06;2615324;36;20054;-71
2021/11/11 18:27:10;;;;;;;68.10;37.22;;;;;;;9.69;100.00;102340.88;2614100;31;20023;-71
2021/11/11 18:29:52;;;;;;;62.00;37.05;;;;;;;9.68;100.00;102336.44;2615093;36;20029;-71
2021/11/11 18:41:18;;;;;;;69.88;38.50;;;;;;;9.64;100.00;102342.97;2615053;36;20034;-71
